Nordheim, Texas
Current Conditions -  °F | °C
As of 4:15 PM on Friday 24 Oct 2014 (Local Time) from KBEA Reporting Station
Clear Clear  
Wind Chill: 87°   Ceiling: Unl
Heat Index: 87°   Visibility: 10mi
Dew Point: 55°   Wind: 5mph
Humidity: 34%   Direction: 50°NE
Pressure: 30.07"   Gusts: NA
Location:  28.92°N, 97.61°W
Report Text: KBEA 242115Z AUTO 05004KT 10SM CLR 31/13 A3007 RMK AO2 T03050128
Loading
Personal Weather Stations






























Interactive Weather Map
Tropical Storm Tracking
New forecast layout! Learn more

10-Day Weather Forecast

Advertisements
Track Severe Weather on mobile